sensor_id;sensor_type;location;lat;lon;timestamp;pressure;altitude;pressure_sealevel;temperature;humidity
38197;BME280;26543;51.976;4.616;2023-01-26T00:01:17;53381.19;;;-140.72;100.00
38197;BME280;26543;51.976;4.616;2023-01-26T00:03:43;53397.44;;;-140.72;100.00
38197;BME280;26543;51.976;4.616;2023-01-26T00:06:12;53436.00;;;-140.72;100.00
38197;BME280;26543;51.976;4.616;2023-01-26T00:08:42;53389.31;;;-140.72;100.00
38197;BME280;26543;51.976;4.616;2023-01-26T00:11:09;53352.78;;;-140.72;100.00
38197;BME280;26543;51.976;4.616;2023-01-26T00:13:35;53405.56;;;-140.72;100.00
38197;BME280;26543;51.976;4.616;2023-01-26T00:16:02;53413.66;;;-140.72;100.00
38197;BME280;26543;51.976;4.616;2023-01-26T00:18:28;53419.75;;;-140.72;100.00
38197;BME280;26543;51.976;4.616;2023-01-26T00:20:58;53373.06;;;-140.72;100.00
38197;BME280;26543;51.976;4.616;2023-01-26T00:23:24;53362.94;;;-140.72;100.00
38197;BME280;26543;51.976;4.616;2023-01-26T00:25:50;53391.34;;;-140.72;100.00
38197;BME280;26543;51.976;4.616;2023-01-26T00:28:15;53373.06;;;-140.72;100.00
38197;BME280;26543;51.976;4.616;2023-01-26T00:30:40;53362.94;;;-140.72;100.00
38197;BME280;26543;51.976;4.616;2023-01-26T00:33:06;53352.78;;;-140.72;100.00
38197;BME280;26543;51.976;4.616;2023-01-26T00:35:31;53383.22;;;-140.72;100.00
38197;BME280;26543;51.976;4.616;2023-01-26T00:37:56;53373.06;;;-140.72;100.00
38197;BME280;26543;51.976;4.616;2023-01-26T00:40:22;53373.06;;;-140.72;100.00
38197;BME280;26543;51.976;4.616;2023-01-26T00:42:47;53407.56;;;-140.72;100.00
38197;BME280;26543;51.976;4.616;2023-01-26T00:45:12;53389.31;;;-140.72;100.00
38197;BME280;26543;51.976;4.616;2023-01-26T00:47:38;53369.00;;;-140.72;100.00
38197;BME280;26543;51.976;4.616;2023-01-26T00:50:04;53377.13;;;-140.72;100.00
38197;BME280;26543;51.976;4.616;2023-01-26T00:52:29;53393.38;;;-140.72;100.00
38197;BME280;26543;51.976;4.616;2023-01-26T00:54:55;53419.75;;;-140.72;100.00
38197;BME280;26543;51.976;4.616;2023-01-26T00:57:20;53377.13;;;-140.72;100.00
38197;BME280;26543;51.976;4.616;2023-01-26T00:59:45;53383.22;;;-140.72;100.00
38197;BME280;26543;51.976;4.616;2023-01-26T01:02:11;53379.16;;;-140.72;100.00
38197;BME280;26543;51.976;4.616;2023-01-26T01:04:36;53358.88;;;-140.72;100.00
38197;BME280;26543;51.976;4.616;2023-01-26T01:07:01;53385.25;;;-140.72;100.00
38197;BME280;26543;51.976;4.616;2023-01-26T01:09:27;53377.13;;;-140.72;100.00
38197;BME280;26543;51.976;4.616;2023-01-26T01:11:52;53342.63;;;-140.72;100.00
38197;BME280;26543;51.976;4.616;2023-01-26T01:14:17;53356.84;;;-140.72;100.00
38197;BME280;26543;51.976;4.616;2023-01-26T01:16:43;53369.00;;;-140.72;100.00
38197;BME280;26543;51.976;4.616;2023-01-26T01:19:14;53391.34;;;-140.72;100.00
38197;BME280;26543;51.976;4.616;2023-01-26T01:21:41;53409.59;;;-140.72;100.00
38197;BME280;26543;51.976;4.616;2023-01-26T01:24:07;53354.81;;;-140.72;100.00
38197;BME280;26543;51.976;4.616;2023-01-26T01:26:32;53391.34;;;-140.72;100.00
38197;BME280;26543;51.976;4.616;2023-01-26T01:28:58;53356.84;;;-140.72;100.00
38197;BME280;26543;51.976;4.616;2023-01-26T01:31:24;53393.38;;;-140.72;100.00
38197;BME280;26543;51.976;4.616;2023-01-26T01:33:51;53399.47;;;-140.72;100.00
38197;BME280;26543;51.976;4.616;2023-01-26T01:36:17;53369.00;;;-140.72;100.00
38197;BME280;26543;51.976;4.616;2023-01-26T01:38:43;53411.63;;;-140.72;100.00
38197;BME280;26543;51.976;4.616;2023-01-26T01:41:09;53373.06;;;-140.72;100.00
38197;BME280;26543;51.976;4.616;2023-01-26T01:43:35;53350.75;;;-140.72;100.00
38197;BME280;26543;51.976;4.616;2023-01-26T01:46:05;53348.72;;;-140.72;100.00
38197;BME280;26543;51.976;4.616;2023-01-26T01:48:42;53342.63;;;-140.72;100.00
38197;BME280;26543;51.976;4.616;2023-01-26T01:51:20;53354.81;;;-140.72;100.00
38197;BME280;26543;51.976;4.616;2023-01-26T01:53:49;53367.00;;;-140.72;100.00
38197;BME280;26543;51.976;4.616;2023-01-26T01:56:20;53373.06;;;-140.72;100.00
38197;BME280;26543;51.976;4.616;2023-01-26T01:58:50;53377.13;;;-140.72;100.00
38197;BME280;26543;51.976;4.616;2023-01-26T02:01:17;53362.94;;;-140.72;100.00
38197;BME280;26543;51.976;4.616;2023-01-26T02:03:44;53385.25;;;-140.72;100.00
38197;BME280;26543;51.976;4.616;2023-01-26T02:08:39;53373.06;;;-140.72;100.00
38197;BME280;26543;51.976;4.616;2023-01-26T02:11:10;53344.66;;;-140.72;100.00
38197;BME280;26543;51.976;4.616;2023-01-26T02:13:38;53409.59;;;-140.72;100.00
38197;BME280;26543;51.976;4.616;2023-01-26T02:16:05;53385.25;;;-140.72;100.00
38197;BME280;26543;51.976;4.616;2023-01-26T02:18:31;53409.59;;;-140.72;100.00
38197;BME280;26543;51.976;4.616;2023-01-26T02:20:59;53360.91;;;-140.72;100.00
38197;BME280;26543;51.976;4.616;2023-01-26T02:26:22;53385.25;;;-140.72;100.00
38197;BME280;26543;51.976;4.616;2023-01-26T02:28:48;53383.22;;;-140.72;100.00
38197;BME280;26543;51.976;4.616;2023-01-26T02:31:15;53389.31;;;-140.72;100.00
38197;BME280;26543;51.976;4.616;2023-01-26T02:33:41;53356.84;;;-140.72;100.00
38197;BME280;26543;51.976;4.616;2023-01-26T02:36:15;53389.31;;;-140.72;100.00
38197;BME280;26543;51.976;4.616;2023-01-26T02:38:50;53371.03;;;-140.72;100.00
38197;BME280;26543;51.976;4.616;2023-01-26T02:41:16;53387.28;;;-140.72;100.00
38197;BME280;26543;51.976;4.616;2023-01-26T02:44:04;53358.88;;;-140.72;100.00
38197;BME280;26543;51.976;4.616;2023-01-26T02:46:31;53358.88;;;-140.72;100.00
38197;BME280;26543;51.976;4.616;2023-01-26T02:48:57;53354.81;;;-140.72;100.00
38197;BME280;26543;51.976;4.616;2023-01-26T02:51:40;53393.38;;;-140.72;100.00
38197;BME280;26543;51.976;4.616;2023-01-26T02:54:06;53383.22;;;-140.72;100.00
38197;BME280;26543;51.976;4.616;2023-01-26T02:56:31;53397.44;;;-140.72;100.00
38197;BME280;26543;51.976;4.616;2023-01-26T02:58:56;53381.19;;;-140.72;100.00
38197;BME280;26543;51.976;4.616;2023-01-26T03:01:22;53373.06;;;-140.72;100.00
38197;BME280;26543;51.976;4.616;2023-01-26T03:03:47;53328.41;;;-140.72;100.00
38197;BME280;26543;51.976;4.616;2023-01-26T03:06:12;53381.19;;;-140.72;100.00
38197;BME280;26543;51.976;4.616;2023-01-26T03:08:39;53371.03;;;-140.72;100.00
38197;BME280;26543;51.976;4.616;2023-01-26T03:11:06;53348.72;;;-140.72;100.00
38197;BME280;26543;51.976;4.616;2023-01-26T03:13:32;53373.06;;;-140.72;100.00
38197;BME280;26543;51.976;4.616;2023-01-26T03:15:57;53401.50;;;-140.72;100.00
38197;BME280;26543;51.976;4.616;2023-01-26T03:18:27;53358.88;;;-140.72;100.00
38197;BME280;26543;51.976;4.616;2023-01-26T03:21:13;53377.13;;;-140.72;100.00
38197;BME280;26543;51.976;4.616;2023-01-26T03:23:57;53362.94;;;-140.72;100.00
38197;BME280;26543;51.976;4.616;2023-01-26T03:26:42;53385.25;;;-140.72;100.00
38197;BME280;26543;51.976;4.616;2023-01-26T03:29:27;53371.03;;;-140.72;100.00
38197;BME280;26543;51.976;4.616;2023-01-26T03:31:52;53373.06;;;-140.72;100.00
38197;BME280;26543;51.976;4.616;2023-01-26T03:34:18;53427.88;;;-140.72;100.00
38197;BME280;26543;51.976;4.616;2023-01-26T03:36:45;53393.38;;;-140.72;100.00
38197;BME280;26543;51.976;4.616;2023-01-26T03:39:10;53377.13;;;-140.72;100.00
38197;BME280;26543;51.976;4.616;2023-01-26T03:41:56;53389.31;;;-140.72;100.00
38197;BME280;26543;51.976;4.616;2023-01-26T03:44:39;53385.25;;;-140.72;100.00
38197;BME280;26543;51.976;4.616;2023-01-26T03:47:23;53421.78;;;-140.72;100.00
38197;BME280;26543;51.976;4.616;2023-01-26T03:50:08;53350.75;;;-140.72;100.00
38197;BME280;26543;51.976;4.616;2023-01-26T03:52:52;53332.47;;;-140.72;100.00
38197;BME280;26543;51.976;4.616;2023-01-26T03:55:36;53346.69;;;-140.72;100.00
38197;BME280;26543;51.976;4.616;2023-01-26T03:58:20;53354.81;;;-140.72;100.00
38197;BME280;26543;51.976;4.616;2023-01-26T04:00:48;53377.13;;;-140.72;100.00
38197;BME280;26543;51.976;4.616;2023-01-26T04:03:13;53383.22;;;-140.72;100.00
38197;BME280;26543;51.976;4.616;2023-01-26T04:05:57;53369.00;;;-140.72;100.00
38197;BME280;26543;51.976;4.616;2023-01-26T04:08:42;53389.31;;;-140.72;100.00
38197;BME280;26543;51.976;4.616;2023-01-26T04:11:08;53352.78;;;-140.72;100.00
38197;BME280;26543;51.976;4.616;2023-01-26T04:13:33;53399.47;;;-140.72;100.00
38197;BME280;26543;51.976;4.616;2023-01-26T04:16:17;53385.25;;;-140.72;100.00
38197;BME280;26543;51.976;4.616;2023-01-26T04:19:01;53379.16;;;-140.72;100.00
38197;BME280;26543;51.976;4.616;2023-01-26T04:21:45;53403.53;;;-140.72;100.00
38197;BME280;26543;51.976;4.616;2023-01-26T04:24:10;53393.38;;;-140.72;100.00
38197;BME280;26543;51.976;4.616;2023-01-26T04:26:39;53328.41;;;-140.72;100.00
38197;BME280;26543;51.976;4.616;2023-01-26T04:29:09;53403.53;;;-140.72;100.00
38197;BME280;26543;51.976;4.616;2023-01-26T04:31:36;53342.63;;;-140.72;100.00
38197;BME280;26543;51.976;4.616;2023-01-26T04:34:03;53385.25;;;-140.72;100.00
38197;BME280;26543;51.976;4.616;2023-01-26T04:36:29;53377.13;;;-140.72;100.00
38197;BME280;26543;51.976;4.616;2023-01-26T04:38:54;53377.13;;;-140.72;100.00
38197;BME280;26543;51.976;4.616;2023-01-26T04:41:20;53389.31;;;-140.72;100.00
38197;BME280;26543;51.976;4.616;2023-01-26T04:43:45;53391.34;;;-140.72;100.00
38197;BME280;26543;51.976;4.616;2023-01-26T04:46:11;53377.13;;;-140.72;100.00
38197;BME280;26543;51.976;4.616;2023-01-26T04:48:36;53371.03;;;-140.72;100.00
38197;BME280;26543;51.976;4.616;2023-01-26T04:51:08;53383.22;;;-140.72;100.00
38197;BME280;26543;51.976;4.616;2023-01-26T04:53:33;53364.97;;;-140.72;100.00
38197;BME280;26543;51.976;4.616;2023-01-26T04:55:59;53352.78;;;-140.72;100.00
38197;BME280;26543;51.976;4.616;2023-01-26T04:58:24;53364.97;;;-140.72;100.00
38197;BME280;26543;51.976;4.616;2023-01-26T05:00:54;53401.50;;;-140.72;100.00
38197;BME280;26543;51.976;4.616;2023-01-26T05:03:21;53330.44;;;-140.72;100.00
38197;BME280;26543;51.976;4.616;2023-01-26T05:05:50;53338.56;;;-140.72;100.00
38197;BME280;26543;51.976;4.616;2023-01-26T05:08:19;53369.00;;;-140.72;100.00
38197;BME280;26543;51.976;4.616;2023-01-26T05:10:45;53373.06;;;-140.72;100.00
38197;BME280;26543;51.976;4.616;2023-01-26T05:13:11;53283.78;;;-140.72;100.00
38197;BME280;26543;51.976;4.616;2023-01-26T05:15:37;53369.00;;;-140.72;100.00
38197;BME280;26543;51.976;4.616;2023-01-26T05:18:03;53332.47;;;-140.72;100.00
38197;BME280;26543;51.976;4.616;2023-01-26T05:20:28;53356.84;;;-140.72;100.00
38197;BME280;26543;51.976;4.616;2023-01-26T05:22:54;53340.59;;;-140.72;100.00
38197;BME280;26543;51.976;4.616;2023-01-26T05:25:20;53389.31;;;-140.72;100.00
38197;BME280;26543;51.976;4.616;2023-01-26T05:27:46;53358.88;;;-140.72;100.00
38197;BME280;26543;51.976;4.616;2023-01-26T05:30:12;53348.72;;;-140.72;100.00
38197;BME280;26543;51.976;4.616;2023-01-26T05:32:37;53369.00;;;-140.72;100.00
38197;BME280;26543;51.976;4.616;2023-01-26T05:35:04;53371.03;;;-140.72;100.00
38197;BME280;26543;51.976;4.616;2023-01-26T05:37:29;53379.16;;;-140.72;100.00
38197;BME280;26543;51.976;4.616;2023-01-26T05:39:55;53383.22;;;-140.72;100.00
38197;BME280;26543;51.976;4.616;2023-01-26T05:42:21;53373.06;;;-140.72;100.00
38197;BME280;26543;51.976;4.616;2023-01-26T05:44:47;53336.53;;;-140.72;100.00
38197;BME280;26543;51.976;4.616;2023-01-26T05:47:12;53385.25;;;-140.72;100.00
38197;BME280;26543;51.976;4.616;2023-01-26T05:49:38;53371.03;;;-140.72;100.00
38197;BME280;26543;51.976;4.616;2023-01-26T05:52:12;53322.34;;;-140.72;100.00
38197;BME280;26543;51.976;4.616;2023-01-26T05:54:38;53371.03;;;-140.72;100.00
38197;BME280;26543;51.976;4.616;2023-01-26T05:57:04;53336.53;;;-140.72;100.00
38197;BME280;26543;51.976;4.616;2023-01-26T05:59:29;53371.03;;;-140.72;100.00
38197;BME280;26543;51.976;4.616;2023-01-26T06:01:55;53354.81;;;-140.72;100.00
38197;BME280;26543;51.976;4.616;2023-01-26T06:04:21;53387.28;;;-140.72;100.00
38197;BME280;26543;51.976;4.616;2023-01-26T06:06:46;53320.31;;;-140.72;100.00
38197;BME280;26543;51.976;4.616;2023-01-26T06:09:12;53352.78;;;-140.72;100.00
38197;BME280;26543;51.976;4.616;2023-01-26T06:11:37;53318.28;;;-140.72;100.00
38197;BME280;26543;51.976;4.616;2023-01-26T06:14:03;53342.63;;;-140.72;100.00
38197;BME280;26543;51.976;4.616;2023-01-26T06:16:28;53348.72;;;-140.72;100.00
38197;BME280;26543;51.976;4.616;2023-01-26T06:18:54;53360.91;;;-140.72;100.00
38197;BME280;26543;51.976;4.616;2023-01-26T06:21:19;53354.81;;;-140.72;100.00
38197;BME280;26543;51.976;4.616;2023-01-26T06:23:45;53362.94;;;-140.72;100.00
38197;BME280;26543;51.976;4.616;2023-01-26T06:26:10;53316.25;;;-140.72;100.00
38197;BME280;26543;51.976;4.616;2023-01-26T06:28:38;53350.75;;;-140.72;100.00
38197;BME280;26543;51.976;4.616;2023-01-26T06:31:06;53320.31;;;-140.72;100.00
38197;BME280;26543;51.976;4.616;2023-01-26T06:33:32;53332.47;;;-140.72;100.00
38197;BME280;26543;51.976;4.616;2023-01-26T06:36:03;53330.44;;;-140.72;100.00
38197;BME280;26543;51.976;4.616;2023-01-26T06:38:29;53336.53;;;-140.72;100.00
38197;BME280;26543;51.976;4.616;2023-01-26T06:40:58;53340.59;;;-140.72;100.00
38197;BME280;26543;51.976;4.616;2023-01-26T06:43:24;53346.69;;;-140.72;100.00
38197;BME280;26543;51.976;4.616;2023-01-26T06:45:50;53326.41;;;-140.72;100.00
38197;BME280;26543;51.976;4.616;2023-01-26T06:48:15;53289.88;;;-140.72;100.00
38197;BME280;26543;51.976;4.616;2023-01-26T06:50:40;53346.69;;;-140.72;100.00
38197;BME280;26543;51.976;4.616;2023-01-26T06:53:28;53373.06;;;-140.72;100.00
38197;BME280;26543;51.976;4.616;2023-01-26T06:55:53;53326.41;;;-140.72;100.00
38197;BME280;26543;51.976;4.616;2023-01-26T06:58:19;53328.41;;;-140.72;100.00
38197;BME280;26543;51.976;4.616;2023-01-26T07:00:44;53328.41;;;-140.72;100.00
38197;BME280;26543;51.976;4.616;2023-01-26T07:03:09;53308.13;;;-140.72;100.00
38197;BME280;26543;51.976;4.616;2023-01-26T07:05:35;53318.28;;;-140.72;100.00
38197;BME280;26543;51.976;4.616;2023-01-26T07:08:04;53326.41;;;-140.72;100.00
38197;BME280;26543;51.976;4.616;2023-01-26T07:10:31;53348.72;;;-140.72;100.00
38197;BME280;26543;51.976;4.616;2023-01-26T07:12:57;53377.13;;;-140.72;100.00
38197;BME280;26543;51.976;4.616;2023-01-26T07:15:22;53356.84;;;-140.72;100.00
38197;BME280;26543;51.976;4.616;2023-01-26T07:17:47;53346.69;;;-140.72;100.00
38197;BME280;26543;51.976;4.616;2023-01-26T07:20:13;53373.06;;;-140.72;100.00
38197;BME280;26543;51.976;4.616;2023-01-26T07:22:38;53348.72;;;-140.72;100.00
38197;BME280;26543;51.976;4.616;2023-01-26T07:25:04;53332.47;;;-140.72;100.00
38197;BME280;26543;51.976;4.616;2023-01-26T07:27:29;53364.97;;;-140.72;100.00
38197;BME280;26543;51.976;4.616;2023-01-26T07:29:55;53334.50;;;-140.72;100.00
38197;BME280;26543;51.976;4.616;2023-01-26T07:32:20;53330.44;;;-140.72;100.00
38197;BME280;26543;51.976;4.616;2023-01-26T07:34:45;53340.59;;;-140.72;100.00
38197;BME280;26543;51.976;4.616;2023-01-26T07:37:11;53336.53;;;-140.72;100.00
38197;BME280;26543;51.976;4.616;2023-01-26T07:39:36;53334.50;;;-140.72;100.00
38197;BME280;26543;51.976;4.616;2023-01-26T07:42:02;53348.72;;;-140.72;100.00
38197;BME280;26543;51.976;4.616;2023-01-26T07:44:27;53340.59;;;-140.72;100.00
38197;BME280;26543;51.976;4.616;2023-01-26T07:46:52;53312.19;;;-140.72;100.00
38197;BME280;26543;51.976;4.616;2023-01-26T07:49:18;53293.91;;;-140.72;100.00
38197;BME280;26543;51.976;4.616;2023-01-26T07:51:45;53306.09;;;-140.72;100.00
38197;BME280;26543;51.976;4.616;2023-01-26T07:54:10;53322.34;;;-140.72;100.00
38197;BME280;26543;51.976;4.616;2023-01-26T07:56:37;53308.13;;;-140.72;100.00
38197;BME280;26543;51.976;4.616;2023-01-26T07:59:03;53304.06;;;-140.72;100.00
38197;BME280;26543;51.976;4.616;2023-01-26T08:01:28;53287.84;;;-140.72;100.00
38197;BME280;26543;51.976;4.616;2023-01-26T08:03:54;53300.00;;;-140.72;100.00
38197;BME280;26543;51.976;4.616;2023-01-26T08:06:20;53275.66;;;-140.72;100.00
38197;BME280;26543;51.976;4.616;2023-01-26T08:08:46;53328.41;;;-140.72;100.00
38197;BME280;26543;51.976;4.616;2023-01-26T08:11:16;53312.19;;;-140.72;100.00
38197;BME280;26543;51.976;4.616;2023-01-26T08:13:43;53295.94;;;-140.72;100.00
38197;BME280;26543;51.976;4.616;2023-01-26T08:16:09;53293.91;;;-140.72;100.00
38197;BME280;26543;51.976;4.616;2023-01-26T08:18:37;53283.78;;;-140.72;100.00
38197;BME280;26543;51.976;4.616;2023-01-26T08:21:02;53259.41;;;-140.72;100.00
38197;BME280;26543;51.976;4.616;2023-01-26T08:23:31;53293.91;;;-140.72;100.00
38197;BME280;26543;51.976;4.616;2023-01-26T08:26:04;53304.06;;;-140.72;100.00
38197;BME280;26543;51.976;4.616;2023-01-26T08:28:30;53295.94;;;-140.72;100.00
38197;BME280;26543;51.976;4.616;2023-01-26T08:30:56;53247.25;;;-140.72;100.00
38197;BME280;26543;51.976;4.616;2023-01-26T08:33:26;53295.94;;;-140.72;100.00
38197;BME280;26543;51.976;4.616;2023-01-26T08:35:52;53316.25;;;-140.72;100.00
38197;BME280;26543;51.976;4.616;2023-01-26T08:38:17;53304.06;;;-140.72;100.00
38197;BME280;26543;51.976;4.616;2023-01-26T08:40:42;53316.25;;;-140.72;100.00
38197;BME280;26543;51.976;4.616;2023-01-26T08:43:08;53316.25;;;-140.72;100.00
38197;BME280;26543;51.976;4.616;2023-01-26T08:45:33;53297.97;;;-140.72;100.00
38197;BME280;26543;51.976;4.616;2023-01-26T08:47:59;53304.06;;;-140.72;100.00
38197;BME280;26543;51.976;4.616;2023-01-26T08:50:24;53310.16;;;-140.72;100.00
38197;BME280;26543;51.976;4.616;2023-01-26T08:52:49;53332.47;;;-140.72;100.00
38197;BME280;26543;51.976;4.616;2023-01-26T08:55:15;53324.38;;;-140.72;100.00
38197;BME280;26543;51.976;4.616;2023-01-26T08:57:40;53320.31;;;-140.72;100.00
38197;BME280;26543;51.976;4.616;2023-01-26T09:00:06;53316.25;;;-140.72;100.00
38197;BME280;26543;51.976;4.616;2023-01-26T09:02:32;53279.72;;;-140.72;100.00
38197;BME280;26543;51.976;4.616;2023-01-26T09:04:57;53310.16;;;-140.72;100.00
38197;BME280;26543;51.976;4.616;2023-01-26T09:07:23;53320.31;;;-140.72;100.00
38197;BME280;26543;51.976;4.616;2023-01-26T09:09:48;53310.16;;;-140.72;100.00
38197;BME280;26543;51.976;4.616;2023-01-26T09:12:13;53334.50;;;-140.72;100.00
38197;BME280;26543;51.976;4.616;2023-01-26T09:14:39;53304.06;;;-140.72;100.00
38197;BME280;26543;51.976;4.616;2023-01-26T09:17:05;53297.97;;;-140.72;100.00
38197;BME280;26543;51.976;4.616;2023-01-26T09:19:30;53316.25;;;-140.72;100.00
38197;BME280;26543;51.976;4.616;2023-01-26T09:21:56;53271.59;;;-140.72;100.00
38197;BME280;26543;51.976;4.616;2023-01-26T09:24:23;53300.00;;;-140.72;100.00
38197;BME280;26543;51.976;4.616;2023-01-26T09:26:48;53251.31;;;-140.72;100.00
38197;BME280;26543;51.976;4.616;2023-01-26T09:29:14;53293.91;;;-140.72;100.00
38197;BME280;26543;51.976;4.616;2023-01-26T09:31:40;53233.03;;;-140.72;100.00
38197;BME280;26543;51.976;4.616;2023-01-26T09:34:08;53273.63;;;-140.72;100.00
38197;BME280;26543;51.976;4.616;2023-01-26T09:36:33;53279.72;;;-140.72;100.00
38197;BME280;26543;51.976;4.616;2023-01-26T09:38:59;53308.13;;;-140.72;100.00
38197;BME280;26543;51.976;4.616;2023-01-26T09:43:59;53259.41;;;-140.72;100.00
38197;BME280;26543;51.976;4.616;2023-01-26T09:46:53;53259.41;;;-140.72;100.00
38197;BME280;26543;51.976;4.616;2023-01-26T09:52:19;53291.88;;;-140.72;100.00
38197;BME280;26543;51.976;4.616;2023-01-26T09:54:51;53267.53;;;-140.72;100.00
38197;BME280;26543;51.976;4.616;2023-01-26T09:57:46;53255.34;;;-140.72;100.00
38197;BME280;26543;51.976;4.616;2023-01-26T10:00:29;53281.75;;;-140.72;100.00
38197;BME280;26543;51.976;4.616;2023-01-26T10:03:04;53271.59;;;-140.72;100.00
38197;BME280;26543;51.976;4.616;2023-01-26T10:05:43;53265.50;;;-140.72;100.00
38197;BME280;26543;51.976;4.616;2023-01-26T10:08:11;53285.81;;;-140.72;100.00
38197;BME280;26543;51.976;4.616;2023-01-26T10:10:41;53253.31;;;-140.72;100.00
38197;BME280;26543;51.976;4.616;2023-01-26T10:13:12;53297.97;;;-140.72;100.00
38197;BME280;26543;51.976;4.616;2023-01-26T10:15:42;53269.56;;;-140.72;100.00
38197;BME280;26543;51.976;4.616;2023-01-26T10:18:21;53287.84;;;-140.72;100.00
38197;BME280;26543;51.976;4.616;2023-01-26T10:20:52;53279.72;;;-140.72;100.00
38197;BME280;26543;51.976;4.616;2023-01-26T10:23:27;53287.84;;;-140.72;100.00
38197;BME280;26543;51.976;4.616;2023-01-26T10:26:01;53300.00;;;-140.72;100.00
38197;BME280;26543;51.976;4.616;2023-01-26T10:28:30;53267.53;;;-140.72;100.00
38197;BME280;26543;51.976;4.616;2023-01-26T10:30:57;53259.41;;;-140.72;100.00
38197;BME280;26543;51.976;4.616;2023-01-26T10:33:30;53235.06;;;-140.72;100.00
38197;BME280;26543;51.976;4.616;2023-01-26T10:36:00;53287.84;;;-140.72;100.00
38197;BME280;26543;51.976;4.616;2023-01-26T10:41:02;53263.47;;;-140.72;100.00
38197;BME280;26543;51.976;4.616;2023-01-26T10:43:28;53253.31;;;-140.72;100.00
38197;BME280;26543;51.976;4.616;2023-01-26T10:45:55;53265.50;;;-140.72;100.00
38197;BME280;26543;51.976;4.616;2023-01-26T10:48:22;53218.81;;;-140.72;100.00
38197;BME280;26543;51.976;4.616;2023-01-26T10:50:52;53218.81;;;-140.72;100.00
38197;BME280;26543;51.976;4.616;2023-01-26T10:53:26;53251.31;;;-140.72;100.00
38197;BME280;26543;51.976;4.616;2023-01-26T10:56:04;53255.34;;;-140.72;100.00
38197;BME280;26543;51.976;4.616;2023-01-26T10:58:54;53249.28;;;-140.72;100.00
38197;BME280;26543;51.976;4.616;2023-01-26T11:01:22;53310.16;;;-140.72;100.00
38197;BME280;26543;51.976;4.616;2023-01-26T11:06:29;53255.34;;;-140.72;100.00
38197;BME280;26543;51.976;4.616;2023-01-26T11:09:15;53243.19;;;-140.72;100.00
38197;BME280;26543;51.976;4.616;2023-01-26T11:11:54;53239.13;;;-140.72;100.00
38197;BME280;26543;51.976;4.616;2023-01-26T11:14:20;53226.94;;;-140.72;100.00
38197;BME280;26543;51.976;4.616;2023-01-26T11:22:10;53233.03;;;-140.72;100.00
38197;BME280;26543;51.976;4.616;2023-01-26T11:32:53;53233.03;;;-140.72;100.00
38197;BME280;26543;51.976;4.616;2023-01-26T11:38:44;53233.03;;;-140.72;100.00
38197;BME280;26543;51.976;4.616;2023-01-26T11:57:44;53174.19;;;-140.72;100.00
38197;BME280;26543;51.976;4.616;2023-01-26T12:00:27;53210.72;;;-140.72;100.00
38197;BME280;26543;51.976;4.616;2023-01-26T12:03:04;53162.00;;;-140.72;100.00
38197;BME280;26543;51.976;4.616;2023-01-26T12:05:36;53212.75;;;-140.72;100.00
38197;BME280;26543;51.976;4.616;2023-01-26T12:08:14;53224.91;;;-140.72;100.00
38197;BME280;26543;51.976;4.616;2023-01-26T12:15:51;53182.28;;;-140.72;100.00
38197;BME280;26543;51.976;4.616;2023-01-26T12:18:41;53198.53;;;-140.72;100.00
38197;BME280;26543;51.976;4.616;2023-01-26T12:21:10;53196.50;;;-140.72;100.00
38197;BME280;26543;51.976;4.616;2023-01-26T12:26:20;53178.22;;;-140.72;100.00
38197;BME280;26543;51.976;4.616;2023-01-26T12:29:00;53145.75;;;-140.72;100.00
38197;BME280;26543;51.976;4.616;2023-01-26T12:31:39;53190.41;;;-140.72;100.00
38197;BME280;26543;51.976;4.616;2023-01-26T12:34:11;53164.03;;;-140.72;100.00
38197;BME280;26543;51.976;4.616;2023-01-26T12:42:33;53153.88;;;-140.72;100.00
38197;BME280;26543;51.976;4.616;2023-01-26T12:45:06;53139.69;;;-140.72;100.00
38197;BME280;26543;51.976;4.616;2023-01-26T12:47:55;53107.19;;;-140.72;100.00
38197;BME280;26543;51.976;4.616;2023-01-26T12:50:30;53103.16;;;-140.72;100.00
38197;BME280;26543;51.976;4.616;2023-01-26T12:53:07;53133.59;;;-140.72;100.00
38197;BME280;26543;51.976;4.616;2023-01-26T12:55:58;53137.66;;;-140.72;100.00
38197;BME280;26543;51.976;4.616;2023-01-26T12:58:33;53125.47;;;-140.72;100.00
38197;BME280;26543;51.976;4.616;2023-01-26T13:01:11;53121.41;;;-140.72;100.00
38197;BME280;26543;51.976;4.616;2023-01-26T13:03:54;53125.47;;;-140.72;100.00
38197;BME280;26543;51.976;4.616;2023-01-26T13:06:23;53174.19;;;-140.72;100.00
38197;BME280;26543;51.976;4.616;2023-01-26T13:08:59;53149.81;;;-140.72;100.00
38197;BME280;26543;51.976;4.616;2023-01-26T13:11:48;53162.00;;;-140.72;100.00
38197;BME280;26543;51.976;4.616;2023-01-26T13:14:38;53172.16;;;-140.72;100.00
38197;BME280;26543;51.976;4.616;2023-01-26T13:19:51;53166.06;;;-140.72;100.00
38197;BME280;26543;51.976;4.616;2023-01-26T13:24:44;53133.59;;;-140.72;100.00
38197;BME280;26543;51.976;4.616;2023-01-26T13:35:14;53180.25;;;-140.72;100.00
38197;BME280;26543;51.976;4.616;2023-01-26T13:40:41;53115.31;;;-140.72;100.00
38197;BME280;26543;51.976;4.616;2023-01-26T13:43:27;53178.22;;;-140.72;100.00
38197;BME280;26543;51.976;4.616;2023-01-26T13:46:05;53159.97;;;-140.72;100.00
38197;BME280;26543;51.976;4.616;2023-01-26T13:51:05;53182.28;;;-140.72;100.00
38197;BME280;26543;51.976;4.616;2023-01-26T13:53:39;53194.47;;;-140.72;100.00
38197;BME280;26543;51.976;4.616;2023-01-26T13:56:34;53184.31;;;-140.72;100.00
38197;BME280;26543;51.976;4.616;2023-01-26T13:59:08;53159.97;;;-140.72;100.00
38197;BME280;26543;51.976;4.616;2023-01-26T14:01:42;53155.91;;;-140.72;100.00
38197;BME280;26543;51.976;4.616;2023-01-26T14:04:13;53170.13;;;-140.72;100.00